createdAt,value
2022-10-14T00:01:11.667Z,85.13
2022-10-14T00:03:53.873Z,86.93
2022-10-14T00:06:33.045Z,83.55
2022-10-14T00:09:06.375Z,95.43
2022-10-14T00:11:41.139Z,91.95
2022-10-14T00:14:20.963Z,97.20
2022-10-14T00:17:00.450Z,93.75
2022-10-14T00:19:30.613Z,92.25
2022-10-14T00:22:07.364Z,98.03
2022-10-14T00:24:48.714Z,95.80
2022-10-14T00:27:25.124Z,105.50
2022-10-14T00:29:59.485Z,105.68
2022-10-14T00:32:44.568Z,105.50
2022-10-14T00:35:15.942Z,113.65
2022-10-14T00:37:46.286Z,115.82
2022-10-14T00:40:19.351Z,116.55
2022-10-14T00:42:51.840Z,110.40
2022-10-14T00:45:25.099Z,114.13
2022-10-14T00:47:57.503Z,122.43
2022-10-14T00:50:28.691Z,126.68
2022-10-14T00:52:59.960Z,132.73
2022-10-14T00:55:43.320Z,124.35
2022-10-14T00:58:15.215Z,135.48
2022-10-14T01:00:44.468Z,135.38
2022-10-14T01:03:24.866Z,132.13
2022-10-14T01:06:02.685Z,135.23
2022-10-14T01:08:41.208Z,131.02
2022-10-14T01:11:25.967Z,143.77
2022-10-14T01:14:07.686Z,145.75
2022-10-14T01:16:55.203Z,135.40
2022-10-14T01:20:00.309Z,145.38
2022-10-14T01:22:36.175Z,150.65
2022-10-14T01:25:18.818Z,143.77
2022-10-14T01:28:07.178Z,144.52
2022-10-14T01:30:46.093Z,139.85
2022-10-14T01:33:22.119Z,152.10
2022-10-14T01:36:04.863Z,149.88
2022-10-14T01:38:38.850Z,153.25
2022-10-14T01:41:16.619Z,151.63
2022-10-14T01:43:53.299Z,150.45
2022-10-14T01:46:28.754Z,146.05
2022-10-14T01:49:03.592Z,150.20
2022-10-14T01:51:39.889Z,151.60
2022-10-14T01:54:23.917Z,147.77
2022-10-14T01:56:55.604Z,148.57
2022-10-14T01:59:26.001Z,141.00
2022-10-14T02:01:56.718Z,141.05
2022-10-14T02:04:26.593Z,152.77
2022-10-14T02:07:08.419Z,153.20
2022-10-14T02:09:54.797Z,151.95
2022-10-14T02:12:41.244Z,151.93
2022-10-14T02:15:22.923Z,147.85
2022-10-14T02:18:00.407Z,144.25
2022-10-14T02:20:37.777Z,146.20
2022-10-14T02:23:14.606Z,141.38
2022-10-14T02:25:46.834Z,146.80
2022-10-14T02:28:22.509Z,137.43
2022-10-14T02:30:55.878Z,136.73
2022-10-14T02:33:33.299Z,138.82
2022-10-14T02:36:03.344Z,143.15
2022-10-14T02:38:33.381Z,143.75
2022-10-14T02:41:06.232Z,140.65
2022-10-14T02:43:34.784Z,132.60
2022-10-14T02:46:06.382Z,130.15
2022-10-14T02:48:39.810Z,131.05
2022-10-14T02:51:08.335Z,137.52
2022-10-14T02:53:42.021Z,138.25
2022-10-14T02:56:11.948Z,139.80
2022-10-14T02:58:44.914Z,136.75
2022-10-14T03:01:15.971Z,138.90
2022-10-14T03:03:45.885Z,141.82
2022-10-14T03:06:16.805Z,136.93
2022-10-14T03:08:45.819Z,129.40
2022-10-14T03:11:18.129Z,137.82
2022-10-14T03:13:46.712Z,138.32
2022-10-14T03:16:16.975Z,137.05
2022-10-14T03:18:47.629Z,143.18
2022-10-14T03:21:17.177Z,139.55
2022-10-14T03:23:45.992Z,143.10
2022-10-14T03:26:15.744Z,143.68
2022-10-14T03:28:45.623Z,140.00
2022-10-14T03:31:16.512Z,139.05
2022-10-14T03:33:51.885Z,148.60
2022-10-14T03:36:25.743Z,146.50
2022-10-14T03:38:54.636Z,143.05
2022-10-14T03:41:24.487Z,141.23
2022-10-14T03:43:52.777Z,146.10
2022-10-14T03:46:31.352Z,138.30
2022-10-14T03:49:00.951Z,142.32
2022-10-14T03:51:29.258Z,130.30
2022-10-14T03:53:57.762Z,132.40
2022-10-14T03:56:26.246Z,130.82
2022-10-14T03:58:54.635Z,130.70
2022-10-14T04:01:22.888Z,127.22
2022-10-14T04:03:52.433Z,127.60
2022-10-14T04:06:21.865Z,126.07
2022-10-14T04:08:50.580Z,120.47
2022-10-14T04:11:18.827Z,114.53
2022-10-14T04:13:46.927Z,113.97
2022-10-14T04:16:15.091Z,119.93
2022-10-14T04:18:43.337Z,113.80
2022-10-14T04:21:13.658Z,111.20
2022-10-14T04:23:43.105Z,113.57
2022-10-14T04:26:11.546Z,116.88
2022-10-14T04:28:40.116Z,110.03
2022-10-14T04:31:08.466Z,107.63
2022-10-14T04:33:37.464Z,111.35
2022-10-14T04:36:07.878Z,111.80
2022-10-14T04:38:36.011Z,112.97
2022-10-14T04:41:05.778Z,116.65
2022-10-14T04:43:33.917Z,106.80
2022-10-14T04:46:01.983Z,98.47
2022-10-14T04:48:30.042Z,99.97
2022-10-14T04:50:58.112Z,103.40
2022-10-14T04:53:26.292Z,98.53
2022-10-14T04:55:55.854Z,99.63
2022-10-14T04:58:32.280Z,103.95
2022-10-14T05:01:07.780Z,92.72
2022-10-14T05:03:39.935Z,92.18
2022-10-14T05:06:14.588Z,88.63
2022-10-14T05:08:45.627Z,90.28
2022-10-14T05:11:16.510Z,92.95
2022-10-14T05:13:49.627Z,86.05
2022-10-14T05:16:20.267Z,87.60
2022-10-14T05:18:50.788Z,85.20
2022-10-14T05:21:21.212Z,83.45
2022-10-14T05:23:50.819Z,83.93
2022-10-14T05:26:23.304Z,81.82
2022-10-14T05:29:01.151Z,82.18
2022-10-14T05:31:43.661Z,77.07
2022-10-14T05:34:13.705Z,75.45
2022-10-14T05:36:45.438Z,72.97
2022-10-14T05:39:14.824Z,72.95
2022-10-14T05:41:43.630Z,66.47
2022-10-14T05:44:14.696Z,67.15
2022-10-14T05:46:43.547Z,64.28
2022-10-14T05:49:13.568Z,65.78
2022-10-14T05:51:42.019Z,63.25
2022-10-14T05:54:12.146Z,61.60
2022-10-14T05:56:46.104Z,60.00
2022-10-14T05:59:26.538Z,66.13
2022-10-14T06:01:56.605Z,63.92
2022-10-14T06:04:26.192Z,64.13
2022-10-14T06:06:55.155Z,65.18
2022-10-14T06:09:26.005Z,73.93
2022-10-14T06:11:56.778Z,73.88
2022-10-14T06:14:29.311Z,81.97
2022-10-14T06:16:59.798Z,77.65
2022-10-14T06:19:29.427Z,91.85
2022-10-14T06:21:57.598Z,88.78
2022-10-14T06:24:26.251Z,90.72
2022-10-14T06:26:54.659Z,101.82
2022-10-14T06:29:26.513Z,108.30
2022-10-14T06:31:57.031Z,116.38
2022-10-14T06:34:26.867Z,116.05
2022-10-14T06:37:01.245Z,118.47
2022-10-14T06:39:31.062Z,130.23
2022-10-14T06:42:00.102Z,126.60
2022-10-14T06:44:28.821Z,125.40
2022-10-14T06:46:58.993Z,132.05
2022-10-14T06:49:28.424Z,130.32
2022-10-14T06:51:57.508Z,132.50
2022-10-14T06:54:26.842Z,144.05
2022-10-14T06:56:56.662Z,138.68
2022-10-14T06:59:26.204Z,131.57
2022-10-14T07:01:55.050Z,135.15
2022-10-14T07:04:26.718Z,125.60
2022-10-14T07:07:02.141Z,129.98
2022-10-14T07:09:32.639Z,135.68
2022-10-14T07:12:02.773Z,127.47
2022-10-14T07:14:34.584Z,120.35
2022-10-14T07:17:03.978Z,115.97
2022-10-14T07:19:39.019Z,114.13
2022-10-14T07:22:21.691Z,119.50
2022-10-14T07:24:53.713Z,114.07
2022-10-14T07:27:27.160Z,107.93
2022-10-14T07:30:05.328Z,114.25
2022-10-14T07:32:41.586Z,104.30
2022-10-14T07:35:17.048Z,102.65
2022-10-14T07:37:47.777Z,98.70
2022-10-14T07:40:29.206Z,98.45
2022-10-14T07:43:03.597Z,99.47
2022-10-14T07:45:37.959Z,92.47
2022-10-14T07:48:38.502Z,97.20
2022-10-14T07:51:20.949Z,90.30
2022-10-14T07:53:53.224Z,94.28
2022-10-14T07:56:25.786Z,91.15
2022-10-14T07:58:59.245Z,93.90
2022-10-14T08:01:28.800Z,87.30
2022-10-14T08:04:05.302Z,84.80
2022-10-14T08:06:39.594Z,86.20
2022-10-14T08:09:15.055Z,82.25
2022-10-14T08:11:56.731Z,82.38
2022-10-14T08:14:31.834Z,88.03
2022-10-14T08:17:09.900Z,83.47
2022-10-14T08:19:43.092Z,78.57
2022-10-14T08:28:04.884Z,72.97
2022-10-14T08:30:50.185Z,70.78
2022-10-14T08:33:34.503Z,66.05
2022-10-14T08:36:24.614Z,67.65
2022-10-14T08:39:27.641Z,63.92
2022-10-14T08:42:46.832Z,62.13
2022-10-14T08:45:42.483Z,62.42
2022-10-14T08:48:26.201Z,56.47
2022-10-14T08:51:21.402Z,55.75
2022-10-14T08:54:15.603Z,51.65
2022-10-14T08:56:59.672Z,49.80
2022-10-14T08:59:31.610Z,48.65
2022-10-14T09:02:29.552Z,48.80
2022-10-14T09:05:06.591Z,44.53
2022-10-14T09:07:43.658Z,45.35
2022-10-14T09:10:27.447Z,41.20
2022-10-14T09:13:07.232Z,40.60
2022-10-14T09:15:47.417Z,34.60
2022-10-14T09:18:38.973Z,35.25
2022-10-14T09:21:34.019Z,34.50
2022-10-14T09:24:18.949Z,33.42
2022-10-14T09:26:54.471Z,31.98
2022-10-14T09:29:29.266Z,30.55
2022-10-14T09:32:04.777Z,27.95
2022-10-14T09:34:38.565Z,29.17
2022-10-14T09:37:27.734Z,28.35
2022-10-14T09:40:04.919Z,26.98
2022-10-14T09:42:52.563Z,25.52
2022-10-14T09:45:28.685Z,27.52
2022-10-14T09:48:04.388Z,25.88
2022-10-14T09:50:40.052Z,26.15
2022-10-14T09:53:18.279Z,26.67
2022-10-14T09:55:58.025Z,28.02
2022-10-14T09:58:35.431Z,25.33
2022-10-14T10:01:06.401Z,28.42
2022-10-14T10:03:41.354Z,26.27
2022-10-14T10:06:25.390Z,25.75
2022-10-14T10:11:45.520Z,25.45
2022-10-14T10:14:27.636Z,25.30
2022-10-14T10:17:19.681Z,25.17
2022-10-14T10:19:51.804Z,23.00
2022-10-14T10:22:28.534Z,21.75
2022-10-14T10:25:26.471Z,20.95
2022-10-14T10:28:27.556Z,20.48
2022-10-14T10:31:07.531Z,20.23
2022-10-14T10:33:47.894Z,20.08
2022-10-14T10:36:26.729Z,19.83
2022-10-14T10:39:01.160Z,21.98
2022-10-14T10:41:51.257Z,19.42
2022-10-14T10:44:53.380Z,19.88
2022-10-14T10:50:42.079Z,17.98
2022-10-14T10:53:31.478Z,17.15
2022-10-14T10:56:18.608Z,16.40
2022-10-14T10:59:15.613Z,16.45
2022-10-14T11:01:51.942Z,15.88
2022-10-14T11:04:32.481Z,15.05
2022-10-14T11:07:34.698Z,15.15
2022-10-14T11:10:33.328Z,15.63
2022-10-14T11:13:08.654Z,12.98
2022-10-14T11:15:49.955Z,13.73
2022-10-14T11:18:29.591Z,12.35
2022-10-14T11:21:13.388Z,11.88
2022-10-14T11:23:59.658Z,11.07
2022-10-14T11:26:50.563Z,11.23
2022-10-14T11:29:47.391Z,12.25
2022-10-14T11:32:23.860Z,11.98
2022-10-14T11:35:08.596Z,11.93
2022-10-14T11:37:55.395Z,13.10
2022-10-14T11:40:28.855Z,11.55
2022-10-14T11:43:14.555Z,14.18
2022-10-14T11:45:54.230Z,13.63
2022-10-14T11:48:33.870Z,13.60
2022-10-14T11:51:12.653Z,19.38
2022-10-14T11:53:57.855Z,19.38
2022-10-14T11:56:40.926Z,19.08
2022-10-14T11:59:23.948Z,19.75
2022-10-14T12:01:55.405Z,21.35
2022-10-14T12:04:29.581Z,19.42
2022-10-14T12:07:06.219Z,19.10
2022-10-14T12:09:41.794Z,20.98
2022-10-14T12:12:17.428Z,22.85
2022-10-14T12:14:50.109Z,26.08
2022-10-14T12:17:25.490Z,26.77
2022-10-14T12:19:54.484Z,27.00
2022-10-14T12:22:27.334Z,25.77
2022-10-14T12:24:58.342Z,24.92
2022-10-14T12:27:31.189Z,24.77
2022-10-14T12:29:59.633Z,24.83
2022-10-14T12:32:30.667Z,23.45
2022-10-14T12:35:01.226Z,28.75
2022-10-14T12:37:51.095Z,27.52
2022-10-14T12:40:32.461Z,26.65
2022-10-14T12:43:14.632Z,29.80
2022-10-14T12:46:00.653Z,28.80
2022-10-14T12:48:32.546Z,30.33
2022-10-14T12:51:12.168Z,28.23
2022-10-14T12:53:50.280Z,26.42
2022-10-14T12:56:36.583Z,27.95
2022-10-14T12:59:10.142Z,27.10
2022-10-14T13:01:38.837Z,25.23
2022-10-14T13:04:19.972Z,26.67
2022-10-14T13:07:46.413Z,29.17
2022-10-14T13:22:50.104Z,21.48
2022-10-14T13:25:22.170Z,23.95
2022-10-14T13:28:22.813Z,23.55
2022-10-14T13:31:00.656Z,20.42
2022-10-14T13:33:41.258Z,19.90
2022-10-14T13:37:31.502Z,17.40
2022-10-14T14:14:00.341Z,7.28
2022-10-14T14:16:58.371Z,12.35
2022-10-14T14:19:35.772Z,8.35
2022-10-14T14:29:08.750Z,7.60
2022-10-14T14:32:12.128Z,9.45
2022-10-14T14:35:38.776Z,8.52
2022-10-14T15:05:32.939Z,10.50
2022-10-14T15:12:32.797Z,7.65
2022-10-14T15:19:55.380Z,7.13
2022-10-14T15:26:53.508Z,7.53
2022-10-14T16:22:40.245Z,11.82
2022-10-14T16:28:49.118Z,10.60
2022-10-14T16:31:35.235Z,11.18
2022-10-14T16:37:23.441Z,12.05
2022-10-14T16:40:42.791Z,13.43
2022-10-14T16:43:41.709Z,13.18
2022-10-14T16:47:02.008Z,11.63
2022-10-14T16:54:00.061Z,11.27
2022-10-14T16:57:26.530Z,10.23
2022-10-14T17:29:19.401Z,9.80
2022-10-14T17:48:43.348Z,13.75
2022-10-14T17:54:47.539Z,13.95
2022-10-14T18:07:54.608Z,17.60
2022-10-14T18:11:10.039Z,17.20
2022-10-14T18:14:30.489Z,22.08
2022-10-14T18:30:27.705Z,20.25
2022-10-14T18:40:40.227Z,23.90
2022-10-14T18:57:57.344Z,26.42
2022-10-14T19:01:52.646Z,27.55
2022-10-14T19:44:39.781Z,31.10
2022-10-14T19:52:03.019Z,30.15
2022-10-14T20:50:05.629Z,29.88
2022-10-14T20:53:08.221Z,32.90
2022-10-14T20:56:06.173Z,34.95
2022-10-14T21:02:40.884Z,38.13
2022-10-14T21:06:01.096Z,37.20
2022-10-14T21:59:55.058Z,45.03
2022-10-14T22:03:14.087Z,45.85
2022-10-14T23:27:11.171Z,66.50
2022-10-14T23:34:06.471Z,61.10
2022-10-14T23:54:40.838Z,66.75
